Station: Roxby Downs

  Atmospheric Gas Attenuation - ITU Rec 676-11   --------------- db/100km ---------------
Date Time Temp RH % AH g/m3 Dew Point Wind Direction Speed kph Gust kph Barometer mB Rainfall Since 9am 24GHz 47GHz 76GHz 122GHz 134GHz 241GHz
21 18:50 20.8 28 5.07 1.6 19 26 1011.4 0.2 11.9 19.0 24.4 63.3 50.2 170.2
21 18:40 21 27 4.95 1.3 24 30 1011.2 0.2 11.6 18.8 23.9 62.2 48.8 165.4
21 18:30 21.2 26 4.82 1 28 37 1010.8 0.2 11.3 18.6 23.5 60.9 47.3 160.2
21 18:20 21.4 25 4.69 0.6 32 37 1010.8 0.2 11.1 18.4 23.0 59.7 45.9 155.1
21 18:10 21.6 25 4.74 0.8 32 39 1010.6 0.2 11.2 18.4 23.1 59.9 46.3 156.5
21 18:00 21.8 24 4.6 0.4 30 43 1010.2 0.2 10.9 18.2 22.6 58.6 44.7 151.0
21 17:50 22 25 4.85 1.1 22 35 1010.3 0.2 11.4 18.5 23.3 60.5 47.2 159.7
21 17:40 22.1 25 4.88 1.2 28 32 1010.1 0.2 11.4 18.5 23.4 60.7 47.4 160.5
21 17:30 22.2 25 4.91 1.3 28 39 1009.8 0.2 11.5 18.5 23.4 60.8 47.6 161.4
21 17:20 21.8 26 4.99 1.5 26 30 1009.8 0.2 11.7 18.7 23.8 61.8 48.7 165.0
21 17:10 22.4 24 4.77 0.9 24 30 1009.8 0 11.2 18.3 22.9 59.5 46.1 156.0
21 17:00 22.5 23 4.59 0.4 30 41 1009.5 0 10.8 18.0 22.4 58.0 44.2 149.3
21 16:50 22.6 23 4.62 0.4 30 35 1009.6 0 10.9 18.0 22.4 58.2 44.5 150.2
21 16:40 22.7 23 4.65 0.5 22 26 1009.4 0 10.9 18.1 22.5 58.3 44.7 151.1
21 16:30 22.4 23 4.57 0.3 33 46 1009.2 0 10.8 18.0 22.3 57.9 44.1 148.8
21 16:20 22.8 23 4.67 0.6 30 33 1009.3 0 11.0 18.1 22.5 58.4 44.8 151.6
21 16:10 22.6 23 4.62 0.4 32 37 1009.3 0 10.9 18.0 22.4 58.1 44.5 150.2
21 16:00 22.5 23 4.59 0.4 33 44 1009.1 0 10.8 18.0 22.3 58.0 44.2 149.3
21 15:50 22.7 24 4.85 1.1 28 33 1009.3 0 11.4 18.3 23.1 60.0 46.7 158.2
21 15:40 22.4 24 4.77 0.9 28 35 1009.3 0 11.2 18.3 22.9 59.5 46.1 155.9
21 15:30 22.6 22 4.42 -0.2 32 46 1009.1 0 10.5 17.8 21.8 56.5 42.4 143.1
21 15:20 22.8 23 4.67 0.6 37 43 1009.4 0 11.0 18.1 22.5 58.4 44.9 151.6
21 15:10 22.5 22 4.39 -0.3 37 43 1009.5 0 10.4 17.8 21.8 56.4 42.2 142.3
21 15:00 22.7 22 4.44 -0.1 30 41 1009.3 0 10.5 17.8 21.8 56.6 42.6 143.7
21 14:50 22.8 22 4.47 0 33 39 1009.5 0 10.6 17.8 21.9 56.8 42.9 144.6
21 14:40 22.6 23 4.62 0.4 26 30 1009.6 0 10.9 18.0 22.4 58.2 44.5 150.2
21 14:30 22.3 23 4.54 0.2 35 48 1009.4 0 10.7 18.0 22.3 57.7 43.8 147.9
21 14:20 22.2 22 4.32 -0.5 35 43 1009.7 0 10.3 17.7 21.6 56.0 41.7 140.4
21 14:10 22.5 21 4.19 -0.9 24 28 1009.8 0 10.0 17.5 21.2 54.8 40.2 135.3
21 14:00 22.4 21 4.17 -1 30 41 1009.6 0 9.9 17.5 21.1 54.7 40.1 134.8
21 13:50 22.3 22 4.34 -0.4 35 41 1010 0 10.3 17.8 21.7 56.1 41.8 140.9
21 13:40 21.9 21 4.05 -1.4 35 41 1010 0 9.7 17.5 20.9 54.1 39.1 131.4
21 13:30 21.8 22 4.22 -0.8 35 50 1010 0 10.1 17.7 21.4 55.5 40.9 137.5
21 13:20 21.8 21 4.03 -1.5 33 46 1010.2 0 9.7 17.5 20.9 54.0 39.0 130.9
21 13:10 21.8 22 4.22 -0.8 37 48 1010.3 0 10.1 17.7 21.4 55.5 40.9 137.6
21 13:00 21.8 23 4.41 -0.2 33 48 1010.3 0 10.5 18.0 22.0 57.1 42.8 144.3
21 12:50 21.4 22 4.12 -1.2 33 37 1010.6 0 9.9 17.7 21.3 55.0 40.1 134.7
21 12:40 21.4 23 4.31 -0.6 26 32 1010.7 0 10.3 17.9 21.8 56.5 42.0 141.5
21 12:30 21.2 24 4.45 -0.1 33 43 1010.5 0 10.6 18.1 22.3 57.8 43.5 146.8
21 12:20 21.3 24 4.47 -0.1 32 39 1010.8 0 10.6 18.1 22.3 57.9 43.7 147.3
21 12:10 20.7 25 4.5 0 33 39 1010.9 0 10.7 18.3 22.6 58.6 44.3 149.5
21 12:00 20.6 25 4.47 -0.1 37 46 1010.9 0 10.6 18.3 22.5 58.4 44.1 148.6
21 11:50 20.5 27 4.8 0.9 28 30 1011.2 0 11.3 18.7 23.6 61.3 47.5 160.8
21 11:40 20.1 26 4.52 0 33 37 1011.3 0 10.7 18.4 22.8 59.2 44.9 151.4
21 11:30 20.5 27 4.8 0.9 32 43 1011.2 0 11.3 18.7 23.6 61.3 47.5 160.8
21 11:20 20.1 29 5.04 1.5 33 37 1011.5 0 11.8 19.1 24.5 63.6 50.3 170.5
21 11:10 19.8 26 4.44 -0.2 44 48 1011.5 0 10.6 18.4 22.7 58.8 44.2 149.0
21 11:00 20 26 4.49 -0.1 32 46 1011.4 0 10.7 18.4 22.8 59.0 44.6 150.5
21 10:50 19.9 26 4.47 -0.1 28 33 1011.7 0 10.6 18.4 22.7 59.0 44.5 149.9
21 10:40 19.7 27 4.58 0.2 33 41 1011.7 0 10.9 18.6 23.1 60.0 45.7 154.3
21 10:30 19.5 28 4.7 0.5 32 43 1011.7 0 11.1 18.8 23.6 61.2 47.1 159.1
21 10:20 19.3 27 4.48 -0.1 35 39 1012 0 10.7 18.6 23.0 59.5 44.9 151.4
21 10:10 19.4 26 4.34 -0.6 32 37 1012 0 10.4 18.4 22.5 58.2 43.4 146.1
21 10:00 19.2 29 4.78 0.8 24 33 1011.8 0 11.3 19.0 23.9 62.1 48.1 162.7
21 09:50 18.7 28 4.48 -0.2 22 32 1012 0 10.7 18.7 23.1 59.9 45.2 152.5
21 09:40 18.7 30 4.8 0.8 22 26 1012 0 11.4 19.1 24.1 62.7 48.6 164.4
21 09:30 18.4 30 4.72 0.5 19 24 1011.8 0 11.2 19.1 24.0 62.2 47.9 162.0
21 09:20 18.2 30 4.66 0.4 24 28 1012 0 11.1 19.0 23.8 61.8 47.4 160.2
21 09:10 18.1 32 4.94 1.2 19 22 1012.1 0 11.7 19.4 24.8 64.4 50.5 171.0
21 09:00 17.7 34 5.13 1.7 13 19 1011.9 0 12.1 19.7 25.5 66.3 52.8 179.0
21 08:50 17.5 34 5.07 1.5 17 20 1012.1 0 12.0 19.7 25.4 66.0 52.3 177.2
21 08:40 17.3 35 5.16 1.7 13 17 1012.1 0 12.2 19.9 25.7 66.9 53.4 181.1
21 08:30 17.1 41 5.97 3.8 13 17 1011.8 0 13.9 21.0 28.5 74.4 62.6 213.5
21 08:20 16.8 44 6.29 4.5 9 11 1012 0 14.6 21.6 29.8 77.7 66.6 227.3
21 08:10 16.3 48 6.66 5.3 11 11 1012 0 15.4 22.2 31.3 81.7 71.3 243.9
21 08:00 16 54 7.36 6.7 7 9 1011.7 0 16.9 23.3 33.9 88.8 80.0 274.4
21 07:50 15.3 57 7.44 6.8 7 9 1011.8 0 17.1 23.6 34.5 90.4 81.7 280.3
21 07:40 14.6 61 7.63 7.2 7 7 1011.8 0 17.5 24.1 35.6 93.2 84.8 291.1
21 07:30 14 68 8.2 8.2 6 7 1011.5 0 18.7 25.1 38.0 99.8 92.8 318.9
21 07:20 13.3 70 8.09 8 6 7 1011.6 0 18.5 25.2 37.9 99.5 92.2 316.7
21 07:10 12.7 73 8.13 8 0 0 1011.6 0 18.6 25.4 38.4 100.7 93.4 321.0
21 07:00 12.3 74 8.04 7.8 7 9 1011.3 0 18.5 25.3 38.2 100.2 92.7 318.4
21 06:50 11.9 75 7.94 7.6 4 6 1011.5 0 18.3 25.3 38.0 99.7 91.9 315.4
21 06:40 11.7 76 7.95 7.6 6 6 1011.4 0 18.3 25.4 38.1 100.0 92.2 316.6
21 06:30 11.7 75 7.85 7.4 11 13 1011.1 0 18.1 25.2 37.7 98.9 90.9 311.9
21 06:20 11.6 77 8 7.7 7 7 1011.1 0 18.4 25.5 38.4 100.6 93.0 319.3
21 06:10 11.7 77 8.05 7.8 9 9 1011.1 0 18.5 25.5 38.5 101.1 93.5 321.2
21 06:00 11.7 75 7.85 7.4 7 9 1010.6 0 18.1 25.2 37.7 98.9 90.8 311.8
21 05:50 11.7 78 8.16 8 4 6 1010.7 0 18.7 25.7 39.0 102.2 95.0 326.2
21 05:40 11.9 77 8.16 8 9 9 1010.6 0 18.7 25.6 38.8 101.9 94.7 325.4
21 05:30 12.1 77 8.26 8.2 6 7 1010.4 0 18.9 25.7 39.1 102.7 95.8 329.2
21 05:20 12 74 7.89 7.5 6 6 1010.3 0 18.2 25.2 37.7 98.9 91.0 312.4
21 05:10 12.3 76 8.25 8.2 6 7 1010.4 0 18.9 25.7 39.0 102.4 95.4 327.9
21 04:50 11.9 77 8.16 8 0 0 1010.3 0 18.7 25.6 38.8 101.9 94.7 325.3
21 04:40 12.2 76 8.2 8.1 0 0 1010.2 0 18.8 25.6 38.8 101.9 94.8 325.9
21 04:30 12.3 76 8.25 8.2 0 0 1009.9 0 18.9 25.6 39.0 102.3 95.4 327.7
21 04:20 12.6 73 8.08 7.9 0 0 1010 0 18.5 25.3 38.2 100.1 92.8 318.6
21 04:10 12.7 71 7.9 7.6 0 0 1010.1 0 18.1 25.0 37.4 98.1 90.3 310.0
21 04:00 13 70 7.94 7.7 0 0 1009.7 0 18.2 24.9 37.4 98.1 90.4 310.6
21 03:50 13.4 66 7.67 7.2 0 0 1009.9 0 17.6 24.4 36.2 94.8 86.5 296.9
21 03:40 13.4 67 7.79 7.4 0 0 1009.9 0 17.9 24.6 36.6 96.1 88.1 302.3
21 03:30 13.6 65 7.65 7.2 6 7 1009.7 0 17.6 24.3 36.0 94.3 86.0 295.2
21 03:20 13.7 64 7.58 7 6 6 1010.1 0 17.4 24.2 35.7 93.5 85.1 291.8
21 03:10 14 63 7.6 7.1 9 9 1009.9 0 17.4 24.1 35.6 93.4 85.0 291.5
21 03:00 14.2 61 7.45 6.8 9 13 1009.7 0 17.1 23.8 35.0 91.6 82.9 284.1
21 02:50 14.4 61 7.54 7 9 13 1009.9 0 17.3 23.9 35.2 92.3 83.8 287.4
21 02:40 14.5 59 7.34 6.6 13 15 1009.8 0 16.9 23.6 34.4 90.1 81.2 278.3
21 02:30 14.7 59 7.43 6.8 15 20 1009.8 0 17.1 23.7 34.7 90.8 82.1 281.5
21 02:20 14.9 60 7.65 7.2 15 15 1010.1 0 17.5 24.0 35.4 92.8 84.6 290.5
21 02:10 15.1 59 7.61 7.2 15 19 1010.1 0 17.4 23.9 35.2 92.2 83.9 288.0

Last Refresh: 21-Sep-2020 18:58:38

Most of the information presented on this site is sourced from the Bureau of Meteorology.  Copyright in all material sourced from the Bureau of Meteorology resides with the Commonwealth of Australia.